createdAt,value
2019-04-14T00:01:06.432Z,68.50
2019-04-14T00:03:43.318Z,68.80
2019-04-14T00:06:12.038Z,69.40
2019-04-14T00:08:41.588Z,69.40
2019-04-14T00:11:10.437Z,69.30
2019-04-14T00:13:39.314Z,69.30
2019-04-14T00:16:07.980Z,69.50
2019-04-14T00:18:36.666Z,69.80
2019-04-14T00:21:06.491Z,70.10
2019-04-14T00:23:35.375Z,70.30
2019-04-14T00:26:27.587Z,70.80
2019-04-14T00:28:57.768Z,70.90
2019-04-14T00:31:28.566Z,71.50
2019-04-14T00:33:59.002Z,72.10
2019-04-14T00:36:38.069Z,71.10
2019-04-14T00:39:18.300Z,70.90
2019-04-14T00:42:01.421Z,70.70
2019-04-14T00:44:39.106Z,70.90
2019-04-14T00:47:09.443Z,71.10
2019-04-14T00:49:38.159Z,70.90
2019-04-14T00:52:07.941Z,71.00
2019-04-14T00:54:37.068Z,71.20
2019-04-14T00:57:05.795Z,71.10
2019-04-14T00:59:35.457Z,71.40
2019-04-14T01:02:04.234Z,71.50
2019-04-14T01:04:33.768Z,72.20
2019-04-14T01:07:02.563Z,71.90
2019-04-14T01:09:31.183Z,71.50
2019-04-14T01:12:01.671Z,70.80
2019-04-14T01:14:31.923Z,71.10
2019-04-14T01:17:00.973Z,72.00
2019-04-14T01:19:30.862Z,72.00
2019-04-14T01:22:00.942Z,71.70
2019-04-14T01:24:29.756Z,71.30
2019-04-14T01:26:59.461Z,71.30
2019-04-14T01:29:29.660Z,71.30
2019-04-14T01:31:58.667Z,71.70
2019-04-14T01:34:28.158Z,72.80
2019-04-14T01:36:56.933Z,72.50
2019-04-14T01:39:26.517Z,72.50
2019-04-14T01:41:56.445Z,72.10
2019-04-14T01:44:26.431Z,71.90
2019-04-14T01:46:56.500Z,72.00
2019-04-14T01:49:26.804Z,72.90
2019-04-14T01:52:06.395Z,72.30
2019-04-14T01:54:39.402Z,73.20
2019-04-14T01:57:26.364Z,72.80
2019-04-14T01:59:56.692Z,72.50
2019-04-14T02:02:27.130Z,72.90
2019-04-14T02:04:55.805Z,72.30
2019-04-14T02:07:25.526Z,72.70
2019-04-14T02:09:55.355Z,71.90
2019-04-14T02:12:25.432Z,72.00
2019-04-14T02:14:54.512Z,71.50
2019-04-14T02:17:24.222Z,71.80
2019-04-14T02:19:54.526Z,72.30
2019-04-14T02:22:24.546Z,72.70
2019-04-14T02:24:54.808Z,72.10
2019-04-14T02:27:25.239Z,72.00
2019-04-14T02:29:54.267Z,71.80
2019-04-14T02:32:51.486Z,72.00
2019-04-14T02:35:21.464Z,71.90
2019-04-14T02:37:58.564Z,72.20
2019-04-14T02:43:03.918Z,71.80
2019-04-14T02:50:17.202Z,72.60
2019-04-14T02:53:01.204Z,73.10
2019-04-14T02:55:19.082Z,73.90
2019-04-14T02:57:57.276Z,72.80
2019-04-14T03:00:25.779Z,72.60
2019-04-14T03:02:47.483Z,72.50
2019-04-14T03:05:32.101Z,72.50
2019-04-14T03:07:53.634Z,72.70
2019-04-14T03:10:24.597Z,73.00
2019-04-14T03:12:58.634Z,72.50
2019-04-14T03:15:23.998Z,72.20
2019-04-14T03:18:24.004Z,72.70
2019-04-14T03:20:47.552Z,73.60
2019-04-14T03:23:44.201Z,72.80
2019-04-14T03:26:15.505Z,73.20
2019-04-14T03:31:37.571Z,73.00
2019-04-14T03:36:58.827Z,73.10
2019-04-14T03:38:58.872Z,73.30
2019-04-14T03:43:50.033Z,73.80
2019-04-14T03:46:25.451Z,74.00
2019-04-14T03:51:26.242Z,74.20
2019-04-14T03:53:53.526Z,74.00
2019-04-14T03:56:07.153Z,73.60
2019-04-14T03:58:33.586Z,74.60
2019-04-14T04:01:02.443Z,74.10
2019-04-14T04:03:32.414Z,74.60
2019-04-14T04:06:01.331Z,74.50
2019-04-14T04:08:31.189Z,74.70
2019-04-14T04:11:02.021Z,75.60
2019-04-14T04:13:30.276Z,74.80
2019-04-14T04:16:00.534Z,74.50
2019-04-14T04:18:30.895Z,74.60
2019-04-14T04:24:04.367Z,74.90
2019-04-14T04:26:38.551Z,75.20
2019-04-14T04:29:17.979Z,74.40
2019-04-14T04:31:54.727Z,75.10
2019-04-14T04:34:25.151Z,74.70
2019-04-14T04:37:04.517Z,74.30
2019-04-14T04:39:38.610Z,73.80
2019-04-14T04:42:09.011Z,73.90
2019-04-14T04:44:38.039Z,73.60
2019-04-14T04:47:07.727Z,73.50
2019-04-14T04:49:36.656Z,73.10
2019-04-14T04:52:06.253Z,71.90
2019-04-14T04:54:36.317Z,72.00
2019-04-14T04:57:06.665Z,71.30
2019-04-14T04:59:36.734Z,70.90
2019-04-14T05:02:05.591Z,70.40
2019-04-14T05:04:35.104Z,70.00
2019-04-14T05:07:05.594Z,70.10
2019-04-14T05:09:39.019Z,70.10
2019-04-14T05:15:03.550Z,67.90
2019-04-14T05:17:34.446Z,66.40
2019-04-14T05:20:03.358Z,65.00
2019-04-14T05:22:33.178Z,65.00
2019-04-14T05:25:02.163Z,64.60
2019-04-14T05:27:31.965Z,64.70
2019-04-14T05:30:00.815Z,63.50
2019-04-14T05:32:30.532Z,63.50
2019-04-14T05:35:00.645Z,63.90
2019-04-14T05:37:31.067Z,64.70
2019-04-14T05:40:00.071Z,65.20
2019-04-14T05:42:30.065Z,65.40
2019-04-14T05:45:00.001Z,64.30
2019-04-14T05:47:28.938Z,64.20
2019-04-14T05:49:58.917Z,64.60
2019-04-14T05:52:28.083Z,65.30
2019-04-14T05:54:57.859Z,65.30
2019-04-14T05:57:30.590Z,66.20
2019-04-14T05:59:59.451Z,64.10
2019-04-14T06:02:30.244Z,63.10
2019-04-14T06:04:59.339Z,62.20
2019-04-14T06:07:28.187Z,62.20
2019-04-14T06:09:57.151Z,62.10
2019-04-14T06:12:25.836Z,62.40
2019-04-14T06:14:56.057Z,63.90
2019-04-14T06:17:24.742Z,63.50
2019-04-14T06:19:53.434Z,62.80
2019-04-14T06:22:22.141Z,63.30
2019-04-14T06:24:50.818Z,63.00
2019-04-14T06:27:19.518Z,62.80
2019-04-14T06:29:49.770Z,62.60
2019-04-14T06:32:25.926Z,62.40
2019-04-14T06:35:12.526Z,61.40
2019-04-14T06:37:45.531Z,62.70
2019-04-14T06:40:14.204Z,63.70
2019-04-14T06:42:42.883Z,63.60
2019-04-14T06:45:11.553Z,62.60
2019-04-14T06:47:40.263Z,61.20
2019-04-14T06:50:08.964Z,62.00
2019-04-14T06:52:37.609Z,62.00
2019-04-14T06:55:06.562Z,60.90
2019-04-14T06:57:35.238Z,59.80
2019-04-14T07:00:03.915Z,60.80
2019-04-14T07:02:32.574Z,60.60
2019-04-14T07:05:01.287Z,60.40
2019-04-14T07:07:30.017Z,59.70
2019-04-14T07:09:58.707Z,59.80
2019-04-14T07:12:27.464Z,60.00
2019-04-14T07:14:56.239Z,59.10
2019-04-14T07:17:24.946Z,59.80
2019-04-14T07:20:01.812Z,58.70
2019-04-14T07:22:24.114Z,59.20
2019-04-14T07:24:52.801Z,57.30
2019-04-14T07:27:21.587Z,57.80
2019-04-14T07:29:54.777Z,59.10
2019-04-14T07:32:27.837Z,58.60
2019-04-14T07:35:04.117Z,56.20
2019-04-14T07:37:34.399Z,56.60
2019-04-14T07:40:07.393Z,56.40
2019-04-14T07:42:40.315Z,54.90
2019-04-14T07:45:13.538Z,55.70
2019-04-14T07:48:01.597Z,56.00
2019-04-14T07:50:37.779Z,53.10
2019-04-14T07:53:24.494Z,53.60
2019-04-14T07:56:03.571Z,53.20
2019-04-14T07:58:36.594Z,52.10
2019-04-14T08:01:09.570Z,50.90
2019-04-14T08:03:42.559Z,51.00
2019-04-14T08:06:11.618Z,51.50
2019-04-14T08:08:40.347Z,48.90
2019-04-14T08:11:09.018Z,48.00
2019-04-14T08:13:37.678Z,44.90
2019-04-14T08:16:06.372Z,44.20
2019-04-14T08:18:35.038Z,43.00
2019-04-14T08:21:03.732Z,40.40
2019-04-14T08:23:32.396Z,40.30
2019-04-14T08:26:01.103Z,39.80
2019-04-14T08:28:29.813Z,36.30
2019-04-14T08:30:58.507Z,36.90
2019-04-14T08:33:27.163Z,34.90
2019-04-14T08:35:55.902Z,32.80
2019-04-14T08:38:24.622Z,30.00
2019-04-14T08:40:53.319Z,31.50
2019-04-14T08:43:40.058Z,30.70
2019-04-14T08:46:10.304Z,30.90
2019-04-14T08:48:56.762Z,30.50
2019-04-14T08:51:27.021Z,31.80
2019-04-14T08:53:57.287Z,31.50
2019-04-14T08:56:33.593Z,30.70
2019-04-14T08:59:03.842Z,30.70
2019-04-14T09:01:39.978Z,31.10
2019-04-14T09:04:19.200Z,28.10
2019-04-14T09:06:55.640Z,26.90
2019-04-14T09:09:25.925Z,28.80
2019-04-14T09:14:56.306Z,29.40
2019-04-14T09:17:16.521Z,29.70
2019-04-14T09:19:45.541Z,28.50
2019-04-14T09:22:14.200Z,27.20
2019-04-14T09:24:42.888Z,28.00
2019-04-14T09:27:11.603Z,30.40
2019-04-14T09:29:40.327Z,29.90
2019-04-14T09:32:10.816Z,28.40
2019-04-14T09:34:39.483Z,28.90
2019-04-14T09:37:08.179Z,30.00
2019-04-14T09:54:27.584Z,27.40
2019-04-14T09:56:56.305Z,28.10
2019-04-14T09:59:24.998Z,30.50
2019-04-14T10:01:53.728Z,31.30
2019-04-14T10:04:22.380Z,29.10
2019-04-14T10:06:51.155Z,29.90
2019-04-14T10:09:19.905Z,29.80
2019-04-14T10:11:52.404Z,30.00
2019-04-14T10:14:18.909Z,29.70
2019-04-14T10:16:47.583Z,30.50
2019-04-14T10:19:16.269Z,31.70
2019-04-14T10:21:44.963Z,29.40
2019-04-14T10:24:13.664Z,29.80
2019-04-14T10:26:42.349Z,29.00
2019-04-14T10:29:11.063Z,29.70
2019-04-14T10:31:39.728Z,29.90
2019-04-14T10:34:09.904Z,30.00
2019-04-14T10:36:38.738Z,29.50
2019-04-14T10:39:07.735Z,29.20
2019-04-14T10:41:36.424Z,28.00
2019-04-14T10:44:05.219Z,28.40
2019-04-14T10:46:33.932Z,28.50
2019-04-14T10:49:02.733Z,29.10
2019-04-14T10:51:34.068Z,30.20
2019-04-14T10:54:01.591Z,29.90
2019-04-14T10:56:30.331Z,28.70
2019-04-14T10:58:59.010Z,29.10
2019-04-14T11:01:27.836Z,32.00
2019-04-14T11:03:56.555Z,33.00
2019-04-14T11:06:29.310Z,35.30
2019-04-14T11:08:58.103Z,34.10
2019-04-14T11:11:26.812Z,34.30
2019-04-14T11:13:55.516Z,35.60
2019-04-14T11:16:24.193Z,37.00
2019-04-14T11:18:53.003Z,37.90
2019-04-14T11:21:21.706Z,38.90
2019-04-14T11:23:50.415Z,38.40
2019-04-14T11:26:19.064Z,39.00
2019-04-14T11:28:47.843Z,39.30
2019-04-14T11:31:18.108Z,40.70
2019-04-14T11:34:00.061Z,41.30
2019-04-14T11:37:06.075Z,40.70
2019-04-14T11:39:34.748Z,40.60
2019-04-14T11:42:03.460Z,42.70
2019-04-14T11:44:32.122Z,44.30
2019-04-14T11:47:00.807Z,42.60
2019-04-14T11:49:29.475Z,43.60
2019-04-14T11:51:58.212Z,43.30
2019-04-14T11:54:26.887Z,42.40
2019-04-14T11:56:55.595Z,42.20
2019-04-14T11:59:25.846Z,42.80
2019-04-14T12:02:04.949Z,41.40
2019-04-14T12:04:44.112Z,41.90
2019-04-14T12:07:17.339Z,41.50
2019-04-14T12:09:47.603Z,41.50
2019-04-14T12:12:16.295Z,39.70
2019-04-14T12:14:44.957Z,42.40
2019-04-14T12:17:13.642Z,40.50
2019-04-14T12:19:42.340Z,39.40
2019-04-14T12:22:11.027Z,38.10
2019-04-14T12:24:39.719Z,38.40
2019-04-14T12:27:08.433Z,37.30
2019-04-14T12:29:37.128Z,35.60
2019-04-14T12:32:06.440Z,35.00
2019-04-14T12:34:35.109Z,33.30
2019-04-14T12:37:04.471Z,31.80
2019-04-14T12:39:33.155Z,31.30
2019-04-14T12:42:12.548Z,31.30
2019-04-14T12:44:42.815Z,32.10
2019-04-14T12:47:19.126Z,29.80
2019-04-14T12:49:49.367Z,30.30
2019-04-14T12:52:22.035Z,30.00
2019-04-14T12:54:49.966Z,30.00
2019-04-14T12:57:20.257Z,28.70
2019-04-14T12:59:48.936Z,28.60
2019-04-14T13:02:19.171Z,28.20
2019-04-14T13:04:47.883Z,29.70
2019-04-14T13:07:16.564Z,30.40
2019-04-14T13:09:45.248Z,31.50
2019-04-14T13:12:13.913Z,31.90
2019-04-14T13:14:42.600Z,31.30
2019-04-14T13:17:11.288Z,30.60
2019-04-14T13:19:40.003Z,30.60
2019-04-14T13:22:08.703Z,29.30
2019-04-14T13:24:37.414Z,28.50
2019-04-14T13:27:06.091Z,28.00
2019-04-14T13:29:34.788Z,29.00
2019-04-14T13:32:03.807Z,29.50
2019-04-14T13:34:32.471Z,29.10
2019-04-14T13:37:01.160Z,29.70
2019-04-14T13:39:29.875Z,28.30
2019-04-14T13:41:58.563Z,29.80
2019-04-14T13:44:27.293Z,27.80
2019-04-14T13:46:55.953Z,27.80
2019-04-14T13:49:24.681Z,28.30
2019-04-14T13:51:53.394Z,28.20
2019-04-14T13:54:22.114Z,28.60
2019-04-14T13:56:50.908Z,29.00
2019-04-14T13:59:19.577Z,29.40
2019-04-14T14:01:48.251Z,28.40
2019-04-14T14:04:17.031Z,29.00
2019-04-14T14:06:45.667Z,29.30
2019-04-14T14:09:14.392Z,29.90
2019-04-14T14:11:44.696Z,29.90
2019-04-14T14:14:14.959Z,30.70
2019-04-14T14:16:45.213Z,30.70
2019-04-14T14:19:30.193Z,30.90
2019-04-14T14:22:06.217Z,30.90
2019-04-14T14:24:45.518Z,31.00
2019-04-14T14:27:14.207Z,31.90
2019-04-14T14:29:42.901Z,32.20
2019-04-14T14:32:13.174Z,32.60
2019-04-14T14:34:41.892Z,34.70
2019-04-14T14:37:10.606Z,36.30
2019-04-14T14:39:39.308Z,37.70
2019-04-14T14:42:07.999Z,38.60
2019-04-14T14:44:50.350Z,39.80
2019-04-14T14:47:20.595Z,40.50
2019-04-14T14:50:06.140Z,42.30
2019-04-14T14:52:36.475Z,43.40
2019-04-14T14:55:06.961Z,43.10
2019-04-14T14:57:35.659Z,43.60
2019-04-14T15:00:09.931Z,45.00
2019-04-14T15:02:38.611Z,45.90
2019-04-14T15:05:07.290Z,45.30
2019-04-14T15:07:35.985Z,45.70
2019-04-14T15:10:06.649Z,46.60
2019-04-14T15:12:35.377Z,47.60
2019-04-14T15:15:06.477Z,47.80
2019-04-14T15:17:35.212Z,49.20
2019-04-14T15:20:04.464Z,47.30
2019-04-14T15:22:33.144Z,47.70
2019-04-14T15:25:01.848Z,48.80
2019-04-14T15:27:30.527Z,48.40
2019-04-14T15:29:59.219Z,48.70
2019-04-14T15:32:27.905Z,48.00
2019-04-14T15:34:56.618Z,48.70
2019-04-14T15:37:25.336Z,49.10
2019-04-14T15:39:54.010Z,48.80
2019-04-14T15:42:22.695Z,49.00
2019-04-14T15:44:51.378Z,49.20
2019-04-14T15:47:20.045Z,49.70
2019-04-14T15:49:48.756Z,49.00
2019-04-14T15:52:17.444Z,49.00
2019-04-14T15:54:46.166Z,49.90
2019-04-14T15:57:16.410Z,49.50
2019-04-14T15:59:46.661Z,49.90
2019-04-14T16:02:19.673Z,49.50
2019-04-14T16:05:02.037Z,50.10
2019-04-14T16:07:35.019Z,50.00
2019-04-14T16:10:06.874Z,50.30
2019-04-14T16:12:39.883Z,49.70
2019-04-14T16:15:10.231Z,50.90
2019-04-14T16:17:40.463Z,51.20
2019-04-14T16:20:13.751Z,51.70
2019-04-14T16:22:42.428Z,52.40
2019-04-14T16:25:11.120Z,52.10
2019-04-14T16:27:41.384Z,52.30
2019-04-14T16:30:17.349Z,52.80
2019-04-14T16:32:50.576Z,53.10
2019-04-14T16:35:20.796Z,53.60
2019-04-14T16:37:49.491Z,53.70
2019-04-14T16:40:18.188Z,54.50
2019-04-14T16:42:46.895Z,55.00
2019-04-14T16:45:17.171Z,55.60
2019-04-14T16:47:45.827Z,56.40
2019-04-14T16:50:14.541Z,56.90
2019-04-14T16:52:44.776Z,57.40
2019-04-14T16:55:22.587Z,58.10
2019-04-14T16:57:59.114Z,58.60
2019-04-14T17:00:29.406Z,58.20
2019-04-14T17:02:58.105Z,59.00
2019-04-14T17:05:26.783Z,60.00
2019-04-14T17:07:55.551Z,60.50
2019-04-14T17:10:24.273Z,62.00
2019-04-14T17:12:52.951Z,63.10
2019-04-14T17:15:32.224Z,63.60
2019-04-14T17:18:07.983Z,64.40
2019-04-14T17:20:38.281Z,65.10
2019-04-14T17:23:24.563Z,66.30
2019-04-14T17:26:11.011Z,66.60
2019-04-14T17:31:22.855Z,68.50
2019-04-14T17:34:03.713Z,69.40
2019-04-14T17:36:33.942Z,70.00
2019-04-14T17:39:16.084Z,70.60
2019-04-14T17:41:55.383Z,70.90
2019-04-14T17:44:28.074Z,70.90
2019-04-14T17:47:04.042Z,71.10
2019-04-14T17:49:42.809Z,71.20
2019-04-14T17:52:28.280Z,71.50
2019-04-14T17:55:16.716Z,72.00
2019-04-14T18:00:45.121Z,72.90
2019-04-14T18:03:33.651Z,73.10
2019-04-14T18:09:28.748Z,73.60
2019-04-14T18:12:04.461Z,73.30
2019-04-14T18:14:40.761Z,74.10
2019-04-14T18:17:26.035Z,74.80
2019-04-14T18:19:56.263Z,74.80
2019-04-14T18:22:24.997Z,75.90
2019-04-14T18:24:53.747Z,75.80
2019-04-14T18:27:22.464Z,75.50
2019-04-14T18:30:01.538Z,75.90
2019-04-14T18:32:31.804Z,75.80
2019-04-14T18:35:02.072Z,76.30
2019-04-14T18:37:32.359Z,76.20
2019-04-14T18:40:11.443Z,76.30
2019-04-14T18:42:58.093Z,76.50
2019-04-14T18:45:44.535Z,77.40
2019-04-14T18:51:21.160Z,77.90
2019-04-14T18:53:57.393Z,78.00
2019-04-14T18:56:30.592Z,77.90
2019-04-14T18:59:03.614Z,78.10
2019-04-14T19:01:33.848Z,78.80
2019-04-14T19:04:02.583Z,78.80
2019-04-14T19:06:31.427Z,78.60
2019-04-14T19:09:00.183Z,80.30
2019-04-14T19:11:45.512Z,79.40
2019-04-14T19:14:15.853Z,79.00
2019-04-14T19:16:46.107Z,80.00
2019-04-14T19:19:16.103Z,81.00
